Time;durP1;ratioP1;P1;durP2;ratioP2;P2;SDS_P1;SDS_P2;PMS_P1;PMS_P2;Temp;Humidity;BMP_temperature;BMP_pressure;BME280_temperature;BME280_humidity;BME280_pressure;Samples;Min_cycle;Max_cycle;Signal;HPM_P1;HPM_P2
2021/12/10 00:01:54;;;;;;;11.57;5.90;;;;;;;3.97;72.23;99362.38;5506507;32;35225;-86
2021/12/10 00:04:57;;;;;;;12.40;5.27;;;;;;;3.47;73.16;99365.47;5516308;32;34282;-84
2021/12/10 00:07:59;;;;;;;12.50;5.63;;;;;;;3.31;74.22;99374.56;5505911;32;35712;-85
2021/12/10 00:11:10;;;;;;;10.43;4.97;;;;;;;3.01;75.82;99354.56;5510841;32;33930;-85
2021/12/10 00:14:13;;;;;;;10.07;4.67;;;;;;;3.22;75.53;99369.59;5511138;32;34673;-80
2021/12/10 00:17:17;;;;;;;10.50;4.40;;;;;;;4.02;72.18;99363.94;5505392;32;33473;-84
2021/12/10 00:20:20;;;;;;;12.18;5.60;;;;;;;3.32;74.12;99363.28;5496882;32;34524;-83
2021/12/10 00:23:24;;;;;;;12.30;5.15;;;;;;;3.40;74.53;99361.31;5509082;32;34976;-80
2021/12/10 00:26:26;;;;;;;11.82;5.45;;;;;;;3.10;76.61;99362.13;5510094;32;36166;-85
2021/12/10 00:29:29;;;;;;;12.10;5.80;;;;;;;3.30;75.38;99370.25;5505994;32;34170;-86
2021/12/10 00:32:40;;;;;;;12.90;5.83;;;;;;;2.77;78.10;99364.66;5499068;32;34642;-81
2021/12/10 00:35:42;;;;;;;12.63;5.93;;;;;;;2.61;79.97;99368.50;5508694;32;34088;-85
2021/12/10 00:38:45;;;;;;;13.73;6.77;;;;;;;3.67;75.21;99377.06;5496502;32;34717;-81
2021/12/10 00:41:47;;;;;;;14.60;6.80;;;;;;;2.94;78.06;99387.59;5513616;32;34974;-87
2021/12/10 00:44:50;;;;;;;15.93;7.67;;;;;;;2.70;78.35;99394.19;5486793;32;34999;-86
2021/12/10 00:47:53;;;;;;;16.10;7.23;;;;;;;2.82;78.19;99387.88;5509344;32;34598;-81
2021/12/10 00:50:57;;;;;;;17.48;7.93;;;;;;;2.54;80.18;99405.84;5501349;32;35649;-80
2021/12/10 00:53:59;;;;;;;18.12;7.93;;;;;;;2.79;78.69;99406.13;5511856;32;34991;-81
2021/12/10 00:57:03;;;;;;;18.63;8.57;;;;;;;2.35;80.66;99384.63;5505824;32;34043;-82
2021/12/10 01:00:11;;;;;;;17.20;7.72;;;;;;;2.39;81.59;99388.88;5508300;32;35980;-81
2021/12/10 01:03:17;;;;;;;17.27;8.07;;;;;;;2.36;81.83;99388.91;5509165;32;35478;-84
2021/12/10 01:06:21;;;;;;;17.10;8.20;;;;;;;2.69;80.03;99382.13;5506179;32;35968;-81
2021/12/10 01:09:24;;;;;;;;;;;;;;;2.61;79.24;99374.53;5514033;32;33802;-80
2021/12/10 01:12:31;;;;;;;19.35;8.75;;;;;;;3.29;76.40;99370.31;5505412;32;34250;-81
2021/12/10 01:16:08;;;;;;;20.47;9.23;;;;;;;3.01;78.04;99362.34;5507644;32;34523;-81
2021/12/10 01:26:09;;;;;;;13.57;6.67;;;;;;;3.43;76.29;99376.00;5497883;32;34799;-86
2021/12/10 01:29:14;;;;;;;14.53;7.30;;;;;;;3.21;75.00;99375.69;5496870;32;34364;-80
2021/12/10 01:32:18;;;;;;;16.33;7.17;;;;;;;2.64;78.95;99374.47;5506578;32;35688;-81
2021/12/10 01:35:24;;;;;;;17.17;7.75;;;;;;;3.36;76.27;99379.66;5482594;32;35073;-82
2021/12/10 01:38:27;;;;;;;16.00;6.83;;;;;;;2.96;77.81;99378.03;5504574;32;34511;-85
2021/12/10 01:41:34;;;;;;;16.07;8.00;;;;;;;3.42;74.92;99374.28;5494585;32;35331;-85
2021/12/10 01:44:42;;;;;;;15.60;7.30;;;;;;;3.63;74.49;99378.91;5508966;32;34493;-81
2021/12/10 01:47:47;;;;;;;15.73;7.60;;;;;;;4.61;70.90;99383.87;5491911;32;34364;-81
2021/12/10 01:50:50;;;;;;;18.70;7.83;;;;;;;4.81;69.16;99378.91;5508835;32;35383;-82
2021/12/10 01:53:56;;;;;;;16.63;7.80;;;;;;;5.07;67.59;99379.81;5510505;32;33920;-85
2021/12/10 01:56:59;;;;;;;16.63;8.30;;;;;;;4.46;69.60;99384.37;5517706;32;34506;-86
2021/12/10 02:00:08;;;;;;;15.13;7.35;;;;;;;4.23;69.71;99369.41;5509628;32;35140;-85
2021/12/10 02:03:10;;;;;;;14.27;7.37;;;;;;;3.50;73.31;99383.59;5512852;32;35015;-85
2021/12/10 02:06:13;;;;;;;17.57;7.80;;;;;;;3.05;75.87;99387.34;5510087;32;35244;-83
2021/12/10 02:09:15;;;;;;;14.03;6.80;;;;;;;2.47;75.91;99383.50;5495244;32;36333;-81
2021/12/10 02:12:19;;;;;;;17.07;7.60;;;;;;;2.48;75.78;99388.66;5514740;32;33907;-81
2021/12/10 02:15:25;;;;;;;15.35;7.22;;;;;;;2.27;78.69;99378.75;5493508;32;33435;-81
2021/12/10 02:18:28;;;;;;;15.50;7.50;;;;;;;2.84;77.23;99386.13;5512909;32;33940;-85
2021/12/10 02:21:33;;;;;;;14.73;6.63;;;;;;;2.80;75.76;99385.34;5503198;32;34586;-85
2021/12/10 02:24:35;;;;;;;13.87;6.63;;;;;;;2.71;75.58;99395.94;5507407;32;34660;-80
2021/12/10 02:27:38;;;;;;;13.50;5.93;;;;;;;2.58;77.96;99394.50;5515218;32;34685;-81
2021/12/10 02:30:41;;;;;;;13.23;6.03;;;;;;;3.18;74.04;99396.53;5510122;32;36650;-85
2021/12/10 02:33:43;;;;;;;15.00;6.47;;;;;;;3.34;72.48;99392.66;5517826;32;35177;-80
2021/12/10 02:36:45;;;;;;;11.20;5.27;;;;;;;3.20;73.75;99387.81;5509837;32;33779;-86
2021/12/10 02:39:47;;;;;;;13.00;5.77;;;;;;;3.04;75.23;99391.69;5495268;32;34695;-81
2021/12/10 02:42:52;;;;;;;12.00;5.23;;;;;;;2.82;74.53;99393.06;5509188;32;34782;-81
2021/12/10 02:45:55;;;;;;;11.70;5.77;;;;;;;3.21;72.60;99402.50;5504521;32;33861;-85
2021/12/10 02:48:58;;;;;;;;;;;;;;;3.59;71.58;99405.84;5508048;32;32998;-87
2021/12/10 02:52:00;;;;;;;10.10;4.60;;;;;;;2.87;72.72;99402.47;5508817;32;35119;-80
2021/12/10 02:55:05;;;;;;;10.20;4.63;;;;;;;2.81;74.50;99400.00;5502803;32;33993;-81
2021/12/10 02:58:10;;;;;;;11.60;5.60;;;;;;;2.31;75.56;99411.50;5508426;32;33097;-81
2021/12/10 03:01:17;;;;;;;10.17;4.73;;;;;;;2.76;74.19;99381.09;5513789;32;34726;-85
2021/12/10 03:04:19;;;;;;;10.97;5.13;;;;;;;2.75;72.90;99389.78;5512606;32;34453;-81
2021/12/10 03:07:22;;;;;;;11.30;5.30;;;;;;;2.22;76.43;99383.19;5507605;32;34555;-86
2021/12/10 03:10:28;;;;;;;11.90;5.60;;;;;;;2.97;74.08;99375.41;5513640;32;35264;-80
2021/12/10 03:13:30;;;;;;;10.37;5.23;;;;;;;2.99;72.83;99375.37;5504763;32;33341;-82
2021/12/10 03:16:33;;;;;;;9.20;4.70;;;;;;;2.39;75.22;99388.88;5516495;32;34627;-80
2021/12/10 03:19:35;;;;;;;12.20;5.20;;;;;;;2.71;74.21;99380.38;5508264;32;35671;-80
2021/12/10 03:22:38;;;;;;;10.17;4.90;;;;;;;2.59;73.37;99391.03;5510906;32;32305;-85
2021/12/10 03:25:41;;;;;;;10.15;5.18;;;;;;;2.84;72.80;99386.97;5510232;32;35065;-81
2021/12/10 03:28:44;;;;;;;11.20;5.35;;;;;;;3.20;72.00;99402.53;5508200;32;34163;-85
2021/12/10 03:31:47;;;;;;;11.10;5.07;;;;;;;2.56;73.17;99402.31;5499111;32;34387;-85
2021/12/10 03:34:50;;;;;;;10.90;5.50;;;;;;;2.50;73.43;99407.63;5504454;32;34484;-84
2021/12/10 03:37:54;;;;;;;11.65;5.65;;;;;;;2.72;73.13;99416.66;5512754;32;33107;-86
2021/12/10 03:40:59;;;;;;;10.82;5.32;;;;;;;3.21;70.36;99420.66;5509143;32;34359;-82
2021/12/10 03:44:02;;;;;;;11.27;5.57;;;;;;;3.49;70.21;99423.44;5489109;32;36083;-80
2021/12/10 03:47:09;;;;;;;13.13;5.77;;;;;;;3.78;69.47;99414.87;5510254;32;35859;-85
2021/12/10 03:50:19;;;;;;;14.00;6.25;;;;;;;3.15;70.74;99410.44;5490770;32;35646;-80
2021/12/10 03:53:22;;;;;;;15.50;7.17;;;;;;;2.76;73.16;99413.97;5513825;32;34453;-81
2021/12/10 03:56:26;;;;;;;13.63;6.70;;;;;;;4.11;68.10;99403.59;5509824;32;33920;-86
2021/12/10 03:59:30;;;;;;;14.93;6.77;;;;;;;3.62;70.42;99417.94;5509684;32;33997;-81
2021/12/10 04:02:32;;;;;;;16.17;8.23;;;;;;;3.32;71.90;99414.37;5507170;32;34117;-81
2021/12/10 04:05:35;;;;;;;13.07;6.67;;;;;;;3.61;71.67;99424.03;5490279;32;33915;-81
2021/12/10 04:08:37;;;;;;;15.20;8.20;;;;;;;2.79;72.40;99416.50;5513623;32;34379;-81
2021/12/10 04:11:41;;;;;;;15.67;7.53;;;;;;;3.49;69.49;99420.84;5503912;32;33434;-85
2021/12/10 04:14:46;;;;;;;13.85;6.72;;;;;;;3.07;69.29;99420.16;5500548;32;34163;-81
2021/12/10 04:17:51;;;;;;;16.03;7.63;;;;;;;2.43;72.73;99422.47;5493948;32;34686;-84
2021/12/10 04:20:53;;;;;;;14.23;7.17;;;;;;;2.69;72.42;99424.50;5504828;32;35159;-85
2021/12/10 04:23:55;;;;;;;15.70;7.90;;;;;;;3.21;69.23;99420.66;5496037;32;35077;-85
2021/12/10 04:26:59;;;;;;;15.43;7.47;;;;;;;3.11;69.80;99427.00;5506219;32;34248;-86
2021/12/10 04:30:05;;;;;;;13.17;6.83;;;;;;;3.23;69.52;99437.09;5514470;32;34063;-81
2021/12/10 04:33:10;;;;;;;15.57;7.97;;;;;;;2.68;70.27;99434.91;5508059;32;35036;-81
2021/12/10 04:36:12;;;;;;;15.77;8.07;;;;;;;2.38;72.01;99424.34;5514252;32;34352;-87
2021/12/10 04:39:14;;;;;;;16.87;8.20;;;;;;;2.36;73.23;99446.81;5492298;32;34365;-82
2021/12/10 04:42:21;;;;;;;15.83;8.10;;;;;;;2.68;72.06;99442.69;5509836;32;33697;-85
2021/12/10 04:45:23;;;;;;;16.33;8.23;;;;;;;3.13;70.73;99439.94;5514152;32;35125;-83
2021/12/10 04:48:27;;;;;;;16.10;8.43;;;;;;;2.31;72.73;99447.81;5489085;32;34419;-80
2021/12/10 04:51:32;;;;;;;15.65;8.40;;;;;;;2.23;73.78;99467.84;5505173;32;34967;-81
2021/12/10 04:54:35;;;;;;;17.47;8.23;;;;;;;3.16;70.69;99466.69;5490480;32;33914;-80
2021/12/10 04:57:38;;;;;;;18.83;8.57;;;;;;;3.24;69.76;99474.28;5497463;32;36010;-86
2021/12/10 05:00:45;;;;;;;17.40;9.40;;;;;;;3.07;71.51;99484.22;5502658;32;32855;-80
2021/12/10 05:03:48;;;;;;;15.90;9.00;;;;;;;3.31;70.06;99480.19;5508886;32;34516;-80
2021/12/10 05:06:50;;;;;;;17.40;8.77;;;;;;;3.44;69.72;99486.78;5514540;32;34228;-85
2021/12/10 05:09:52;;;;;;;18.33;9.57;;;;;;;2.54;71.68;99491.44;5501365;32;33908;-85
2021/12/10 05:12:55;;;;;;;17.37;8.93;;;;;;;2.85;71.77;99491.63;5498995;32;34601;-81
2021/12/10 05:15:58;;;;;;;15.13;8.13;;;;;;;3.15;70.09;99490.91;5505155;32;35018;-81
2021/12/10 05:19:01;;;;;;;23.33;9.88;;;;;;;2.41;72.68;99496.00;5488595;32;35240;-84
2021/12/10 05:22:05;;;;;;;19.00;9.47;;;;;;;3.88;67.96;99479.62;5510375;32;33708;-81
2021/12/10 05:25:08;;;;;;;18.63;9.53;;;;;;;3.03;69.61;99480.84;5510908;32;34663;-81
2021/12/10 05:28:11;;;;;;;20.13;10.37;;;;;;;2.91;71.05;99486.31;5514573;32;34241;-85
2021/12/10 05:31:14;;;;;;;23.27;10.07;;;;;;;2.86;70.84;99493.34;5496104;32;34228;-81
2021/12/10 05:34:17;;;;;;;18.43;9.87;;;;;;;4.02;66.95;99493.97;5516880;32;34752;-81
2021/12/10 05:37:19;;;;;;;22.17;12.17;;;;;;;3.28;70.03;99490.63;5508881;32;34531;-86
2021/12/10 05:40:23;;;;;;;19.10;9.60;;;;;;;4.34;64.95;99482.69;5498102;32;33899;-85
2021/12/10 05:43:25;;;;;;;21.12;10.55;;;;;;;4.28;65.23;99480.25;5513209;32;34287;-82
2021/12/10 05:46:27;;;;;;;20.50;11.07;;;;;;;3.14;69.51;99477.97;5509321;32;34591;-85
2021/12/10 05:49:29;;;;;;;19.47;10.50;;;;;;;2.74;71.02;99488.41;5510147;32;36275;-85
2021/12/10 05:52:32;;;;;;;21.63;11.43;;;;;;;3.09;70.88;99467.72;5493659;32;34721;-81
2021/12/10 05:55:36;;;;;;;23.07;11.90;;;;;;;3.82;67.60;99466.78;5501219;32;35205;-80
2021/12/10 05:58:38;;;;;;;;;;;;;;;2.94;70.30;99463.72;5495049;32;33562;-85
2021/12/10 06:01:40;;;;;;;23.17;11.47;;;;;;;3.18;69.82;99464.91;5509656;32;34897;-82
2021/12/10 06:04:43;;;;;;;19.77;11.53;;;;;;;2.98;71.62;99454.97;5506880;32;34942;-86
2021/12/10 06:07:45;;;;;;;22.87;11.37;;;;;;;3.37;70.00;99448.88;5506190;32;33972;-81
2021/12/10 06:10:48;;;;;;;21.03;11.30;;;;;;;3.29;69.97;99449.06;5514715;32;35084;-80
2021/12/10 06:13:51;;;;;;;21.33;11.90;;;;;;;3.19;71.05;99444.97;5513342;32;34082;-86
2021/12/10 06:16:54;;;;;;;25.77;13.37;;;;;;;2.65;74.57;99443.63;5514470;32;34047;-87
2021/12/10 06:19:56;;;;;;;23.90;11.87;;;;;;;3.24;71.80;99448.31;5507391;32;35345;-82
2021/12/10 06:22:59;;;;;;;24.47;12.63;;;;;;;2.59;74.05;99448.09;5503880;32;35098;-82
2021/12/10 06:26:04;;;;;;;25.95;13.48;;;;;;;3.13;72.22;99445.97;5508269;32;34006;-84
2021/12/10 06:29:09;;;;;;;24.63;12.60;;;;;;;2.54;73.64;99447.34;5483299;32;35175;-79
2021/12/10 06:32:11;;;;;;;24.17;12.43;;;;;;;3.08;72.58;99446.97;5516490;32;34174;-83
2021/12/10 06:35:14;;;;;;;22.73;11.33;;;;;;;3.62;70.80;99447.38;5503612;32;35526;-83
2021/12/10 06:38:19;;;;;;;25.60;12.45;;;;;;;4.44;66.08;99438.16;5511330;32;36248;-83
2021/12/10 06:41:22;;;;;;;23.83;12.40;;;;;;;4.12;67.09;99439.94;5505035;32;33711;-79
2021/12/10 06:44:24;;;;;;;22.67;11.77;;;;;;;3.49;68.73;99448.56;5501771;32;34975;-82
2021/12/10 06:47:26;;;;;;;21.57;11.70;;;;;;;3.76;69.28;99450.47;5513167;32;34478;-79
2021/12/10 06:50:32;;;;;;;23.00;11.83;;;;;;;4.20;66.59;99451.00;5501758;32;34695;-82
2021/12/10 06:53:34;;;;;;;24.87;12.70;;;;;;;4.72;63.85;99440.81;5493281;32;34734;-84
2021/12/10 06:56:37;;;;;;;27.77;13.53;;;;;;;3.78;66.63;99456.47;5500144;32;34325;-85
2021/12/10 06:59:40;;;;;;;27.97;14.50;;;;;;;4.06;65.54;99461.78;5507548;32;34251;-84
2021/12/10 07:02:44;;;;;;;26.27;12.93;;;;;;;2.88;70.40;99460.41;5500766;32;33807;-82
2021/12/10 07:05:50;;;;;;;27.47;14.20;;;;;;;4.39;66.32;99445.28;5498466;32;32849;-78
2021/12/10 07:08:54;;;;;;;26.58;13.25;;;;;;;4.41;64.77;99439.13;5506885;32;34264;-79
2021/12/10 07:11:59;;;;;;;30.27;14.23;;;;;;;4.26;65.67;99431.78;5493476;32;35005;-79
2021/12/10 07:15:03;;;;;;;25.20;13.57;;;;;;;3.95;66.43;99435.22;5509608;32;34061;-81
2021/12/10 07:18:06;;;;;;;27.77;14.43;;;;;;;3.47;68.13;99440.78;5498084;32;34715;-84
2021/12/10 07:21:08;;;;;;;29.17;14.40;;;;;;;3.76;68.99;99441.81;5506571;32;34229;-78
2021/12/10 07:24:15;;;;;;;31.43;15.13;;;;;;;3.18;69.86;99438.09;5511364;32;33004;-79
2021/12/10 07:27:17;;;;;;;30.57;15.60;;;;;;;4.03;68.18;99440.22;5509193;31;33842;-83
2021/12/10 07:30:22;;;;;;;;;;;;;;;4.98;63.74;99429.59;5506020;32;34911;-83
2021/12/10 07:33:24;;;;;;;28.30;14.57;;;;;;;4.05;66.78;99441.00;5507806;32;33937;-76
2021/12/10 07:36:27;;;;;;;26.53;14.30;;;;;;;4.76;65.08;99440.66;5510981;32;33936;-82
2021/12/10 07:39:30;;;;;;;32.30;16.70;;;;;;;5.62;62.01;99430.09;5491547;32;35212;-83
2021/12/10 07:42:33;;;;;;;26.42;13.75;;;;;;;4.34;66.22;99429.81;5495185;32;34161;-78
2021/12/10 07:45:36;;;;;;;29.70;15.73;;;;;;;4.04;66.40;99427.16;5506099;32;33873;-78
2021/12/10 07:48:44;;;;;;;30.55;15.63;;;;;;;4.21;67.41;99423.25;5503696;32;35368;-78
2021/12/10 07:51:52;;;;;;;28.45;14.57;;;;;;;5.28;64.10;99410.41;5483809;32;35315;-77
2021/12/10 07:54:55;;;;;;;36.80;15.33;;;;;;;5.58;61.52;99407.66;5500049;32;33934;-77
2021/12/10 07:57:58;;;;;;;26.83;14.23;;;;;;;4.70;64.68;99407.03;5511828;32;38050;-77
2021/12/10 08:01:06;;;;;;;24.10;12.47;;;;;;;5.49;62.93;99414.03;5500481;32;34206;-76
2021/12/10 08:04:08;;;;;;;25.37;13.50;;;;;;;6.05;59.59;99402.53;5498776;32;34064;-78
2021/12/10 08:07:12;;;;;;;28.77;14.07;;;;;;;4.39;64.26;99408.84;5506369;32;32728;-77
2021/12/10 08:10:16;;;;;;;32.17;16.37;;;;;;;4.22;66.49;99419.75;5498474;32;34719;-77
2021/12/10 08:13:22;;;;;;;33.05;17.55;;;;;;;5.33;63.34;99411.06;5499447;32;33854;-81
2021/12/10 08:16:25;;;;;;;31.83;16.37;;;;;;;4.41;67.11;99404.44;5501115;32;35179;-79
2021/12/10 08:19:28;;;;;;;38.30;17.30;;;;;;;3.74;70.06;99417.62;5503174;32;33847;-83
2021/12/10 08:22:30;;;;;;;33.20;17.67;;;;;;;4.44;67.94;99414.75;5506273;31;34954;-80
2021/12/10 08:25:33;;;;;;;31.43;16.73;;;;;;;4.82;65.09;99416.19;5491822;32;34058;-82
2021/12/10 08:28:36;;;;;;;30.23;16.73;;;;;;;5.12;64.58;99410.03;5497547;32;35305;-78
2021/12/10 08:31:39;;;;;;;31.08;16.95;;;;;;;5.23;64.31;99408.84;5492209;32;33734;-83
2021/12/10 08:34:42;;;;;;;30.40;14.93;;;;;;;5.28;63.04;99413.00;5502668;32;35410;-83
2021/12/10 08:37:44;;;;;;;27.30;14.83;;;;;;;5.44;62.76;99408.97;5500754;32;34007;-78
2021/12/10 08:40:57;;;;;;;28.50;15.23;;;;;;;6.20;59.48;99407.22;5503496;32;35062;-78
2021/12/10 08:44:00;;;;;;;29.03;15.67;;;;;;;5.46;61.35;99411.50;5489790;32;33694;-78
2021/12/10 08:47:12;;;;;;;27.47;15.07;;;;;;;5.05;63.95;99407.69;5499583;32;35240;-82
2021/12/10 08:50:18;;;;;;;36.47;16.07;;;;;;;4.92;64.24;99408.97;5503491;32;35891;-84
2021/12/10 08:53:20;;;;;;;27.90;15.17;;;;;;;4.31;64.56;99417.72;5500635;32;34476;-83
2021/12/10 08:56:23;;;;;;;31.73;16.20;;;;;;;5.16;63.58;99416.00;5472480;32;33930;-82
2021/12/10 08:59:26;;;;;;;34.90;16.98;;;;;;;4.53;65.39;99409.28;5495949;32;33550;-79
2021/12/10 09:02:30;;;;;;;34.47;17.63;;;;;;;4.95;64.85;99398.44;5502652;31;33053;-83
2021/12/10 09:05:33;;;;;;;33.93;17.07;;;;;;;5.44;62.51;99406.34;5477905;32;136464;-84
2021/12/10 09:08:37;;;;;;;29.37;15.57;;;;;;;6.71;58.24;99403.53;5483803;32;34012;-85
2021/12/10 09:11:44;;;;;;;36.33;18.30;;;;;;;7.31;55.80;99399.37;5510126;32;34995;-83
2021/12/10 09:14:56;;;;;;;32.60;17.45;;;;;;;5.04;63.05;99406.81;5510576;32;34260;-76
2021/12/10 09:17:59;;;;;;;32.40;16.97;;;;;;;4.75;63.95;99409.47;5525694;32;34122;-84
2021/12/10 09:21:07;;;;;;;34.42;19.40;;;;;;;5.49;62.19;99414.03;5498112;32;35602;-77
2021/12/10 09:24:10;;;;;;;35.87;18.23;;;;;;;5.58;59.91;99410.25;5510779;32;32764;-83
2021/12/10 09:27:13;;;;;;;36.70;17.87;;;;;;;4.37;65.95;99423.63;5506547;32;34132;-77
2021/12/10 09:30:18;;;;;;;30.30;15.77;;;;;;;4.87;64.35;99419.53;5497998;32;33774;-78
2021/12/10 09:33:22;;;;;;;29.23;16.13;;;;;;;5.06;61.81;99411.97;5516214;32;34038;-77
2021/12/10 09:36:26;;;;;;;29.30;15.13;;;;;;;4.65;64.86;99419.34;5490562;32;35083;-79
2021/12/10 09:39:30;;;;;;;25.20;12.97;;;;;;;4.61;63.09;99410.75;5490308;32;32988;-85
2021/12/10 09:42:35;;;;;;;28.13;13.60;;;;;;;4.46;64.03;99410.38;5507599;32;33953;-78
2021/12/10 09:45:40;;;;;;;27.97;14.30;;;;;;;4.92;63.14;99409.81;5501615;32;32102;-84
2021/12/10 09:48:43;;;;;;;17.30;9.17;;;;;;;5.36;59.92;99412.75;5513797;32;36691;-86
2021/12/10 09:51:50;;;;;;;21.45;11.25;;;;;;;4.04;62.70;99424.56;5494653;32;35347;-84
2021/12/10 09:54:53;;;;;;;19.07;10.47;;;;;;;4.73;61.99;99417.34;5499357;32;34001;-74
2021/12/10 09:57:56;;;;;;;25.40;11.98;;;;;;;4.67;62.08;99422.75;5485306;32;34677;-80
2021/12/10 10:01:04;;;;;;;23.90;11.70;;;;;;;4.53;63.42;99430.13;5489878;32;34111;-87
2021/12/10 10:04:07;;;;;;;19.47;9.90;;;;;;;5.15;60.27;99422.09;5522573;32;33888;-84
2021/12/10 10:07:13;;;;;;;19.10;9.63;;;;;;;4.59;62.95;99429.94;5492780;32;33836;-86
2021/12/10 10:10:19;;;;;;;19.90;10.17;;;;;;;5.04;61.28;99427.66;5507771;32;33366;-82
2021/12/10 10:13:28;;;;;;;18.97;9.87;;;;;;;5.51;59.09;99432.22;5484700;32;37157;-84
2021/12/10 10:16:32;;;;;;;21.27;11.10;;;;;;;4.92;60.34;99428.03;5506201;32;34982;-91
2021/12/10 10:19:35;;;;;;;19.97;10.40;;;;;;;5.05;60.44;99418.94;5511157;32;35009;-81
2021/12/10 10:22:38;;;;;;;19.90;11.47;;;;;;;4.98;60.20;99429.59;5520465;32;33959;-81
2021/12/10 10:25:47;;;;;;;24.33;13.17;;;;;;;4.60;61.14;99424.69;5511655;32;33734;-81
2021/12/10 10:28:52;;;;;;;25.47;13.20;;;;;;;4.43;62.76;99421.72;5506052;32;35468;-82
2021/12/10 10:31:59;;;;;;;;;;;;;;;5.13;60.11;99413.47;5513152;32;33978;-88
2021/12/10 10:35:09;;;;;;;37.97;17.73;;;;;;;5.61;59.89;99403.19;5487277;32;34318;-81
2021/12/10 10:38:12;;;;;;;39.83;19.70;;;;;;;6.66;57.37;99406.31;5512375;32;35454;-79
2021/12/10 10:41:19;;;;;;;41.47;21.05;;;;;;;6.37;58.96;99404.81;5519898;32;35121;-87
2021/12/10 10:44:23;;;;;;;43.00;21.20;;;;;;;5.84;61.30;99394.53;5515429;32;35124;-81
2021/12/10 10:47:26;;;;;;;43.63;20.63;;;;;;;5.98;61.62;99381.88;5517226;32;36441;-76
2021/12/10 10:50:34;;;;;;;39.53;19.92;;;;;;;6.20;61.07;99371.53;5500067;32;32861;-84
2021/12/10 10:53:44;;;;;;;42.43;21.17;;;;;;;6.19;60.60;99367.22;5510487;32;34917;-82
2021/12/10 10:56:46;;;;;;;40.37;21.80;;;;;;;5.47;62.48;99365.44;5517173;32;33836;-78
2021/12/10 10:59:57;;;;;;;40.67;21.27;;;;;;;5.47;62.90;99363.69;5509059;32;34067;-79
2021/12/10 11:03:09;;;;;;;41.10;20.10;;;;;;;5.09;63.87;99355.44;5517525;32;35106;-81
2021/12/10 11:06:16;;;;;;;41.83;20.10;;;;;;;5.63;61.87;99351.84;5511684;32;35100;-82
2021/12/10 11:09:24;;;;;;;40.17;21.13;;;;;;;5.66;60.91;99343.91;5493655;32;33575;-85
2021/12/10 11:12:33;;;;;;;39.73;19.53;;;;;;;5.48;62.05;99346.34;5507792;32;35217;-82
2021/12/10 11:15:39;;;;;;;38.53;20.07;;;;;;;5.79;60.62;99333.88;5500924;32;36431;-88
2021/12/10 11:18:44;;;;;;;40.10;18.90;;;;;;;5.91;60.06;99349.12;5493308;32;33087;-77
2021/12/10 11:21:51;;;;;;;36.33;18.33;;;;;;;5.91;59.85;99348.28;5504507;32;34102;-81
2021/12/10 11:24:58;;;;;;;37.53;18.57;;;;;;;6.01;59.07;99338.37;5507630;32;34115;-78
2021/12/10 11:28:13;;;;;;;38.70;20.47;;;;;;;5.88;59.55;99330.97;5493210;32;32996;-80
2021/12/10 11:31:18;;;;;;;35.00;18.13;;;;;;;5.83;60.10;99345.06;5510869;32;35280;-82
2021/12/10 11:34:43;;;;;;;37.87;18.30;;;;;;;5.44;62.12;99345.56;5511398;32;34810;-83
2021/12/10 11:37:56;;;;;;;36.83;18.20;;;;;;;5.94;59.45;99333.38;5505319;32;34147;-83
2021/12/10 11:41:09;;;;;;;36.70;19.07;;;;;;;5.46;61.14;99337.69;5488865;32;33907;-79
2021/12/10 11:47:38;;;;;;;35.63;18.27;;;;;;;5.90;59.91;99331.75;5503110;32;35843;-78
2021/12/10 11:50:47;;;;;;;34.10;17.63;;;;;;;6.12;58.78;99320.56;5506492;32;34432;-79
2021/12/10 11:53:52;;;;;;;34.43;18.70;;;;;;;5.71;59.76;99328.94;5483921;32;33792;-78
2021/12/10 11:57:22;;;;;;;37.17;18.47;;;;;;;5.89;59.63;99329.19;5512482;31;34125;-81
2021/12/10 12:00:29;;;;;;;33.50;17.77;;;;;;;6.09;58.66;99311.06;5514189;32;33916;-83
2021/12/10 12:03:34;;;;;;;36.57;18.77;;;;;;;6.18;58.55;99329.00;5508679;32;34556;-78
2021/12/10 12:06:38;;;;;;;37.57;18.63;;;;;;;6.22;58.66;99333.19;5509482;32;34989;-78
2021/12/10 12:09:42;;;;;;;38.27;17.70;;;;;;;5.61;61.07;99332.81;5512494;32;33988;-78
2021/12/10 12:12:44;;;;;;;36.38;18.30;;;;;;;6.23;58.21;99331.41;5511022;32;33891;-79
2021/12/10 12:15:57;;;;;;;42.57;19.03;;;;;;;6.22;58.23;99321.91;5505238;32;32512;-78
2021/12/10 12:19:03;;;;;;;35.20;17.63;;;;;;;5.66;60.25;99323.03;5513492;32;34720;-84
2021/12/10 12:25:38;;;;;;;36.10;18.23;;;;;;;5.57;59.60;99317.31;5502874;32;34077;-84
2021/12/10 12:28:55;;;;;;;37.93;19.37;;;;;;;6.10;58.72;99311.91;5483660;32;34022;-77
2021/12/10 12:32:19;;;;;;;35.97;18.93;;;;;;;5.59;60.13;99316.34;5501094;32;36249;-77
2021/12/10 12:35:26;;;;;;;39.20;18.87;;;;;;;6.37;58.12;99299.56;5500524;32;34064;-82
2021/12/10 12:38:30;;;;;;;41.67;19.60;;;;;;;5.42;61.16;99310.91;5490622;32;34242;-78
2021/12/10 12:41:52;;;;;;;40.40;19.90;;;;;;;5.74;59.99;99294.13;5495380;32;34232;-78
2021/12/10 12:45:03;;;;;;;36.87;19.10;;;;;;;5.04;62.43;99297.44;5497116;32;36120;-83
2021/12/10 12:48:26;;;;;;;42.77;22.93;;;;;;;6.03;58.67;99295.66;5502767;32;35123;-84
2021/12/10 12:51:29;;;;;;;40.17;21.15;;;;;;;5.41;61.33;99301.41;5486808;32;35302;-84
2021/12/10 12:54:33;;;;;;;37.35;19.42;;;;;;;5.89;59.12;99296.12;5507800;32;34827;-83
2021/12/10 12:57:40;;;;;;;42.10;20.60;;;;;;;6.39;57.45;99285.56;5503496;32;34228;-86
2021/12/10 13:01:15;;;;;;;40.20;20.33;;;;;;;5.32;60.66;99297.34;5506199;32;34295;-83
2021/12/10 13:04:21;;;;;;;41.30;21.33;;;;;;;6.11;57.81;99287.53;5506624;32;33851;-85
2021/12/10 13:07:43;;;;;;;37.83;18.87;;;;;;;5.64;59.53;99282.31;5503893;32;34321;-83
2021/12/10 13:10:54;;;;;;;36.42;19.40;;;;;;;4.38;63.57;99288.34;5493245;32;33950;-83
2021/12/10 13:14:12;;;;;;;41.23;19.87;;;;;;;4.76;63.11;99289.69;5493020;32;33558;-82
2021/12/10 13:17:24;;;;;;;36.67;18.30;;;;;;;6.28;57.75;99269.47;5500649;32;34986;-84
2021/12/10 13:20:37;;;;;;;36.75;19.62;;;;;;;5.72;59.25;99275.03;5514526;32;35264;-82
2021/12/10 13:23:40;;;;;;;36.67;19.13;;;;;;;6.37;56.89;99273.47;5503953;32;34022;-83
2021/12/10 13:26:43;;;;;;;35.33;17.63;;;;;;;5.31;59.90;99274.78;5509170;32;35331;-81
2021/12/10 13:29:45;;;;;;;35.43;17.47;;;;;;;6.69;55.05;99270.41;5510764;32;35200;-83
2021/12/10 13:32:50;;;;;;;32.87;16.77;;;;;;;6.42;55.61;99266.31;5501829;32;34220;-81
2021/12/10 13:35:55;;;;;;;36.83;18.60;;;;;;;6.38;55.73;99264.75;5518898;32;33722;-83
2021/12/10 13:38:58;;;;;;;36.33;18.00;;;;;;;6.40;56.07;99273.38;5507928;32;34212;-84
2021/12/10 13:42:00;;;;;;;40.47;19.60;;;;;;;5.26;58.99;99279.31;5510210;32;34042;-82
2021/12/10 13:45:05;;;;;;;38.17;18.50;;;;;;;4.88;60.44;99285.81;5503132;32;34028;-83
2021/12/10 13:48:13;;;;;;;36.83;17.47;;;;;;;5.94;57.15;99278.59;5507485;32;34152;-84
2021/12/10 13:51:20;;;;;;;37.67;17.83;;;;;;;6.17;56.12;99279.47;5493209;32;33876;-83
2021/12/10 13:54:24;;;;;;;38.20;19.47;;;;;;;5.38;57.96;99284.09;5507915;32;34329;-83
2021/12/10 13:57:27;;;;;;;41.50;18.63;;;;;;;6.26;56.74;99281.75;5515867;32;34744;-82
2021/12/10 14:00:29;;;;;;;41.87;20.83;;;;;;;6.11;57.30;99279.69;5502822;32;35354;-84
2021/12/10 14:03:46;;;;;;;35.57;18.73;;;;;;;5.47;59.25;99289.88;5512345;32;35587;-83
2021/12/10 14:07:09;;;;;;;33.03;18.43;;;;;;;5.74;57.91;99281.06;5514006;32;34955;-83
2021/12/10 14:10:23;;;;;;;35.73;18.97;;;;;;;5.99;57.32;99281.03;5509716;32;34904;-83
2021/12/10 14:13:29;;;;;;;35.42;17.35;;;;;;;6.06;57.52;99285.13;5516713;32;34433;-83
2021/12/10 14:16:48;;;;;;;35.33;18.30;;;;;;;6.03;57.22;99285.22;5506479;32;33950;-84
2021/12/10 14:20:17;;;;;;;34.10;17.83;;;;;;;6.11;56.54;99277.09;5512468;32;34393;-82
2021/12/10 14:24:00;;;;;;;31.33;16.27;;;;;;;6.22;55.71;99275.78;5516640;32;35320;-81
2021/12/10 14:27:27;;;;;;;29.13;15.93;;;;;;;4.31;60.33;99286.81;5505035;32;34287;-82
2021/12/10 14:30:52;;;;;;;33.67;16.77;;;;;;;5.57;58.33;99276.47;5512012;32;36122;-83
2021/12/10 14:33:55;;;;;;;36.10;17.90;;;;;;;5.53;57.98;99276.63;5507376;32;35429;-83
2021/12/10 14:37:05;;;;;;;39.63;18.83;;;;;;;6.18;56.43;99278.56;5509955;32;34845;-84
2021/12/10 14:40:32;;;;;;;39.23;19.03;;;;;;;5.74;56.97;99294.13;5520856;32;34363;-83
2021/12/10 14:43:39;;;;;;;39.73;19.57;;;;;;;5.50;57.91;99292.37;5492668;32;34326;-84